Time;durP1;ratioP1;P1;durP2;ratioP2;P2;SDS_P1;SDS_P2;PMS_P1;PMS_P2;Temp;Humidity;BMP_temperature;BMP_pressure;BME280_temperature;BME280_humidity;BME280_pressure;Samples;Min_cycle;Max_cycle;Signal;HPM_P1;HPM_P2
2023/03/14 00:01:52;;;;;;;7.07;3.80;;;6.70;99.90;;;;;;5035134;28;20021;-67
2023/03/14 00:04:18;;;;;;;11.10;4.20;;;6.60;99.90;;;;;;5037572;28;20068;-67
2023/03/14 00:06:44;;;;;;;8.18;3.95;;;6.50;99.90;;;;;;5037483;28;20026;-67
2023/03/14 00:09:09;;;;;;;9.40;3.50;;;6.50;99.90;;;;;;5036221;28;20457;-67
2023/03/14 00:11:35;;;;;;;7.43;4.35;;;6.40;99.90;;;;;;5036166;28;20033;-67
2023/03/14 00:14:01;;;;;;;6.63;4.15;;;6.40;99.90;;;;;;5036206;28;20064;-67
2023/03/14 00:16:26;;;;;;;7.60;3.67;;;6.30;99.90;;;;;;5037270;28;20022;-67
2023/03/14 00:18:52;;;;;;;7.13;3.70;;;6.40;99.90;;;;;;5037273;28;20033;-67
2023/03/14 00:21:18;;;;;;;9.25;3.72;;;6.40;99.90;;;;;;5037351;28;20021;-66
2023/03/14 00:23:44;;;;;;;9.30;3.55;;;6.50;99.90;;;;;;5036987;28;20032;-67
2023/03/14 00:26:15;;;;;;;10.48;3.60;;;6.50;99.90;;;;;;5037181;28;20029;-66
2023/03/14 00:28:42;;;;;;;10.45;3.75;;;6.50;99.90;;;;;;5037075;28;20037;-67
2023/03/14 00:31:10;;;;;;;7.65;3.80;;;6.60;99.90;;;;;;5036902;28;20049;-67
2023/03/14 00:33:36;;;;;;;5.63;3.58;;;6.50;99.90;;;;;;5037346;28;20029;-67
2023/03/14 00:36:05;;;;;;;8.50;3.65;;;6.60;99.90;;;;;;5035723;28;20075;-66
2023/03/14 00:38:32;;;;;;;6.13;3.80;;;6.60;99.90;;;;;;5035676;28;20036;-67
2023/03/14 00:40:58;;;;;;;6.18;3.67;;;6.50;99.90;;;;;;5036883;28;20107;-67
2023/03/14 00:43:24;;;;;;;8.52;3.55;;;6.60;99.90;;;;;;5036880;28;20029;-67
2023/03/14 00:45:51;;;;;;;6.82;3.50;;;6.60;99.90;;;;;;5036818;28;20037;-67
2023/03/14 00:48:19;;;;;;;7.80;3.38;;;6.50;99.90;;;;;;5035445;28;20036;-66
2023/03/14 00:50:44;;;;;;;7.85;4.22;;;6.50;99.90;;;;;;5036954;28;20079;-67
2023/03/14 00:53:10;;;;;;;9.18;3.83;;;6.50;99.90;;;;;;5036697;28;20029;-67
2023/03/14 00:55:37;;;;;;;7.07;4.03;;;6.50;99.90;;;;;;5036876;28;20029;-67
2023/03/14 00:58:03;;;;;;;6.25;3.53;;;6.40;99.90;;;;;;5035664;28;20362;-67
2023/03/14 01:00:29;;;;;;;6.88;3.50;;;6.30;99.90;;;;;;5035306;28;20033;-67
2023/03/14 01:02:54;;;;;;;8.90;3.42;;;6.30;99.90;;;;;;5036659;28;20032;-67
2023/03/14 01:05:22;;;;;;;5.47;3.35;;;6.20;99.90;;;;;;5036377;28;20480;-67
2023/03/14 01:07:48;;;;;;;9.10;4.25;;;6.10;99.90;;;;;;5036719;28;20026;-67
2023/03/14 01:10:14;;;;;;;4.95;3.17;;;6.10;99.90;;;;;;5035013;28;20080;-67
2023/03/14 01:12:39;;;;;;;7.85;3.65;;;6.10;99.90;;;;;;5034768;28;20440;-67
2023/03/14 01:15:06;;;;;;;9.10;3.35;;;6.00;99.90;;;;;;5036280;28;20033;-67
2023/03/14 01:17:31;;;;;;;11.35;3.83;;;6.00;99.90;;;;;;5036582;28;20040;-67
2023/03/14 01:19:57;;;;;;;10.05;4.05;;;5.90;99.90;;;;;;5036006;28;20029;-67
2023/03/14 01:22:22;;;;;;;7.60;3.63;;;5.70;99.90;;;;;;5036592;28;20033;-67
2023/03/14 01:24:48;;;;;;;8.45;3.20;;;5.70;99.90;;;;;;5036827;28;20410;-67
2023/03/14 01:27:14;;;;;;;6.78;3.30;;;5.60;99.90;;;;;;5037037;28;20037;-68
2023/03/14 01:29:39;;;;;;;8.20;3.83;;;5.40;99.90;;;;;;5038775;28;20120;-68
2023/03/14 01:32:05;;;;;;;8.40;3.85;;;5.30;99.90;;;;;;5037263;28;20136;-67
2023/03/14 01:34:31;;;;;;;6.80;3.90;;;5.30;99.90;;;;;;5037486;28;20034;-67
2023/03/14 01:36:56;;;;;;;7.32;2.85;;;5.20;99.90;;;;;;5035914;28;20527;-67
2023/03/14 01:39:22;;;;;;;8.52;3.15;;;5.00;99.90;;;;;;5035250;28;20381;-67
2023/03/14 01:41:48;;;;;;;5.88;3.15;;;5.00;99.90;;;;;;5036413;28;20031;-67
2023/03/14 01:44:13;;;;;;;8.45;4.20;;;4.90;99.90;;;;;;5034908;28;20057;-68
2023/03/14 01:46:45;;;;;;;9.13;3.85;;;4.90;99.90;;;;;;5035963;28;20025;-67
2023/03/14 01:49:11;;;;;;;7.57;3.70;;;4.80;99.90;;;;;;5034491;28;20370;-67
2023/03/14 01:51:52;;;;;;;5.35;3.22;;;4.80;99.90;;;;;;5035792;28;20036;-67
2023/03/14 01:54:41;;;;;;;6.78;3.78;;;4.80;99.90;;;;;;5035631;28;20049;-67
2023/03/14 01:57:25;;;;;;;19.17;5.05;;;4.70;99.90;;;;;;5035651;28;20029;-67
2023/03/14 02:00:12;;;;;;;9.98;4.15;;;4.70;99.90;;;;;;5035509;28;20044;-67
2023/03/14 02:02:40;;;;;;;11.52;4.43;;;4.70;99.90;;;;;;5035853;28;20021;-67
2023/03/14 02:05:06;;;;;;;6.90;3.97;;;4.70;99.90;;;;;;5035518;28;20030;-67
2023/03/14 02:07:38;;;;;;;10.57;4.40;;;4.70;99.90;;;;;;5035320;28;20365;-67
2023/03/14 02:10:05;;;;;;;7.70;4.72;;;4.70;99.90;;;;;;5035252;28;20030;-66
2023/03/14 02:12:31;;;;;;;9.88;4.32;;;4.70;99.90;;;;;;5035177;28;20052;-67
2023/03/14 02:14:57;;;;;;;7.85;4.40;;;4.70;99.90;;;;;;5035407;28;20029;-67
2023/03/14 02:17:23;;;;;;;10.70;4.70;;;4.60;99.90;;;;;;5033841;28;20025;-67
2023/03/14 02:20:02;;;;;;;10.02;4.18;;;4.60;99.90;;;;;;5033756;28;20033;-67
2023/03/14 02:22:28;;;;;;;10.63;4.15;;;4.70;99.90;;;;;;5034354;28;20373;-67
2023/03/14 02:25:24;;;;;;;10.10;3.90;;;4.70;99.90;;;;;;5034538;28;20030;-67
2023/03/14 02:27:50;;;;;;;10.35;4.25;;;4.70;99.90;;;;;;5033823;28;20032;-67
2023/03/14 02:30:19;;;;;;;10.10;4.60;;;4.70;99.90;;;;;;5034427;28;20041;-67
2023/03/14 02:32:49;;;;;;;;;;;4.70;99.90;;;;;;5035870;28;20541;-67
2023/03/14 02:35:20;;;;;;;9.85;4.10;;;4.70;99.90;;;;;;5033681;28;20314;-67
2023/03/14 02:37:59;;;;;;;7.40;4.00;;;4.70;99.90;;;;;;5035310;28;20029;-67
2023/03/14 02:40:24;;;;;;;12.65;4.45;;;4.80;99.90;;;;;;5034659;28;20127;-67
2023/03/14 02:42:50;;;;;;;5.93;4.10;;;4.70;99.90;;;;;;5034633;28;20434;-67
2023/03/14 02:45:15;;;;;;;7.15;3.78;;;4.70;99.90;;;;;;5033419;28;20422;-67
2023/03/14 02:47:54;;;;;;;7.03;3.60;;;4.70;99.90;;;;;;5034718;28;20055;-67
2023/03/14 02:50:22;;;;;;;8.23;4.13;;;4.70;99.90;;;;;;5033186;28;20033;-67
2023/03/14 02:52:48;;;;;;;10.80;4.10;;;4.70;99.90;;;;;;5034663;28;20110;-67
2023/03/14 02:55:14;;;;;;;9.25;4.22;;;4.60;99.90;;;;;;5034090;28;20109;-67
2023/03/14 02:57:40;;;;;;;7.03;4.07;;;4.60;99.90;;;;;;5034630;28;20462;-67
2023/03/14 03:00:08;;;;;;;6.65;4.05;;;4.70;99.90;;;;;;5032989;28;20128;-67
2023/03/14 03:02:33;;;;;;;8.85;4.57;;;4.70;99.90;;;;;;5034325;28;20021;-67
2023/03/14 03:04:59;;;;;;;12.45;4.63;;;4.80;99.90;;;;;;5034210;28;20081;-67
2023/03/14 03:07:25;;;;;;;9.80;4.50;;;4.80;99.90;;;;;;5034214;28;20075;-67
2023/03/14 03:09:50;;;;;;;9.82;4.65;;;4.80;99.90;;;;;;5033823;28;20124;-67
2023/03/14 03:12:16;;;;;;;6.25;4.00;;;4.80;99.90;;;;;;5034229;28;20037;-67
2023/03/14 03:14:41;;;;;;;7.90;3.78;;;4.90;99.90;;;;;;5033806;28;20119;-67
2023/03/14 03:17:07;;;;;;;6.93;3.30;;;4.90;99.90;;;;;;5033947;28;20393;-67
2023/03/14 03:19:34;;;;;;;5.75;3.38;;;4.90;99.90;;;;;;5033795;28;20034;-67
2023/03/14 03:22:00;;;;;;;9.75;3.97;;;5.00;99.90;;;;;;5033921;28;20109;-67
2023/03/14 03:24:26;;;;;;;9.68;3.78;;;5.00;99.90;;;;;;5033712;28;20465;-67
2023/03/14 03:26:53;;;;;;;6.15;4.30;;;5.00;99.90;;;;;;5033952;28;20025;-67
2023/03/14 03:29:19;;;;;;;8.85;4.22;;;5.00;99.90;;;;;;5033574;28;20037;-67
2023/03/14 03:31:47;;;;;;;9.10;4.53;;;5.10;99.90;;;;;;5032161;28;20045;-67
2023/03/14 03:34:13;;;;;;;10.07;3.67;;;5.10;99.90;;;;;;5033577;28;20409;-67
2023/03/14 03:36:39;;;;;;;7.72;4.03;;;5.10;99.90;;;;;;5032528;28;20414;-67
2023/03/14 03:39:05;;;;;;;6.95;3.78;;;5.20;99.90;;;;;;5033839;28;20038;-66
2023/03/14 03:41:31;;;;;;;11.55;3.80;;;5.30;99.90;;;;;;5033995;28;20458;-68
2023/03/14 03:43:57;;;;;;;6.75;4.03;;;5.40;99.90;;;;;;5032544;28;20029;-67
2023/03/14 03:46:23;;;;;;;8.60;3.90;;;5.40;99.90;;;;;;5033658;28;20079;-67
2023/03/14 03:48:57;;;;;;;7.70;4.30;;;5.40;99.90;;;;;;5032374;28;20124;-66
2023/03/14 03:51:24;;;;;;;7.15;4.00;;;5.40;99.90;;;;;;5033504;28;20473;-67
2023/03/14 03:53:49;;;;;;;9.30;5.03;;;5.30;99.90;;;;;;5033679;28;20064;-66
2023/03/14 03:56:15;;;;;;;10.05;5.00;;;5.50;99.90;;;;;;5033592;28;20485;-67
2023/03/14 03:58:41;;;;;;;7.97;5.13;;;5.80;99.90;;;;;;5032322;28;20079;-66
2023/03/14 04:01:08;;;;;;;9.57;4.63;;;6.00;99.90;;;;;;5033571;28;20036;-67
2023/03/14 04:03:34;;;;;;;8.57;4.43;;;6.30;99.90;;;;;;5032440;28;20377;-67
2023/03/14 04:06:04;;;;;;;8.23;3.95;;;6.40;99.90;;;;;;5033579;28;20060;-67
2023/03/14 04:08:30;;;;;;;8.00;4.45;;;6.30;99.90;;;;;;5033456;28;20025;-67
2023/03/14 04:11:00;;;;;;;8.00;4.60;;;6.20;99.90;;;;;;5033188;28;20108;-67
2023/03/14 04:13:27;;;;;;;10.85;4.72;;;6.10;99.90;;;;;;5033193;28;20450;-66
2023/03/14 04:15:53;;;;;;;8.98;4.00;;;6.00;99.90;;;;;;5032161;28;20484;-66
2023/03/14 04:18:19;;;;;;;10.65;4.45;;;5.90;99.90;;;;;;5033170;28;20037;-67
2023/03/14 04:20:45;;;;;;;7.07;3.88;;;5.80;99.90;;;;;;5033689;28;20021;-67
2023/03/14 04:23:11;;;;;;;6.47;4.00;;;5.70;99.90;;;;;;5032149;28;20040;-67
2023/03/14 04:25:36;;;;;;;8.15;4.15;;;5.70;99.90;;;;;;5033323;28;20029;-67
2023/03/14 04:28:03;;;;;;;7.82;5.38;;;5.60;99.90;;;;;;5033010;28;20067;-67
2023/03/14 04:30:29;;;;;;;13.20;5.07;;;5.60;99.90;;;;;;5033211;28;20377;-67
2023/03/14 04:32:55;;;;;;;9.35;4.68;;;5.60;99.90;;;;;;5033790;28;20478;-67
2023/03/14 04:35:21;;;;;;;9.48;4.15;;;5.50;99.90;;;;;;5032168;28;20029;-67
2023/03/14 04:37:48;;;;;;;7.53;4.50;;;5.50;99.90;;;;;;5032975;28;20033;-67
2023/03/14 04:40:15;;;;;;;8.05;4.90;;;5.50;99.90;;;;;;5033227;28;20061;-67
2023/03/14 04:42:41;;;;;;;10.30;4.82;;;5.50;99.90;;;;;;5033549;28;20057;-67
2023/03/14 04:45:07;;;;;;;9.88;4.85;;;5.50;99.90;;;;;;5033150;28;20425;-67
2023/03/14 04:47:33;;;;;;;10.75;4.30;;;5.50;99.90;;;;;;5035287;28;20029;-66
2023/03/14 04:49:59;;;;;;;9.13;4.22;;;5.50;99.90;;;;;;5036645;28;20040;-67
2023/03/14 04:52:24;;;;;;;12.85;4.95;;;5.50;99.90;;;;;;5037364;28;20025;-67
2023/03/14 04:54:50;;;;;;;9.48;4.53;;;5.50;99.90;;;;;;5036713;28;20036;-67
2023/03/14 04:57:16;;;;;;;8.63;4.90;;;5.50;99.90;;;;;;5036596;28;20385;-67
2023/03/14 04:59:42;;;;;;;11.85;5.75;;;5.50;99.90;;;;;;5036756;28;20119;-67
2023/03/14 05:02:07;;;;;;;9.18;4.93;;;5.50;99.90;;;;;;5036237;28;20404;-67
2023/03/14 05:04:33;;;;;;;10.93;4.22;;;5.50;99.90;;;;;;5036451;28;20083;-67
2023/03/14 05:06:59;;;;;;;6.85;4.05;;;5.50;99.90;;;;;;5035572;28;20428;-67
2023/03/14 05:09:26;;;;;;;8.02;4.88;;;5.50;99.90;;;;;;5036561;28;20072;-66
2023/03/14 05:11:51;;;;;;;6.97;4.32;;;5.60;99.90;;;;;;5036439;28;20029;-67
2023/03/14 05:14:17;;;;;;;8.98;4.15;;;5.60;99.90;;;;;;5036206;28;20028;-68
2023/03/14 05:16:43;;;;;;;6.40;4.28;;;5.60;99.90;;;;;;5038574;28;20104;-71
2023/03/14 05:19:10;;;;;;;7.55;4.20;;;5.60;99.90;;;;;;5037974;28;20029;-69
2023/03/14 05:21:37;;;;;;;6.97;4.05;;;5.70;99.90;;;;;;5038650;28;20037;-71
2023/03/14 05:24:03;;;;;;;9.27;4.55;;;5.70;99.90;;;;;;5037911;28;20069;-69
2023/03/14 05:26:28;;;;;;;8.90;4.53;;;5.70;99.90;;;;;;5036901;28;20354;-68
2023/03/14 05:28:54;;;;;;;9.18;4.95;;;5.70;99.90;;;;;;5036242;28;20060;-69
2023/03/14 05:31:20;;;;;;;11.27;4.53;;;5.70;99.90;;;;;;5034678;28;20041;-68
2023/03/14 05:33:46;;;;;;;7.50;4.30;;;5.60;99.90;;;;;;5036168;28;20041;-70
2023/03/14 05:36:12;;;;;;;7.03;4.65;;;5.70;99.90;;;;;;5036842;28;20036;-69
2023/03/14 05:38:37;;;;;;;9.80;5.03;;;5.70;99.90;;;;;;5036458;28;20091;-67
2023/03/14 05:41:03;;;;;;;7.85;4.65;;;5.70;99.90;;;;;;5039276;28;20090;-68
2023/03/14 05:43:29;;;;;;;9.18;4.45;;;5.80;99.90;;;;;;5040143;28;20057;-69
2023/03/14 05:45:54;;;;;;;9.75;3.97;;;5.80;99.90;;;;;;5039894;28;20438;-71
2023/03/14 05:48:21;;;;;;;10.90;5.50;;;5.80;99.90;;;;;;5038251;28;20025;-68
2023/03/14 05:50:47;;;;;;;7.47;4.38;;;5.90;99.90;;;;;;5036793;28;20559;-68
2023/03/14 05:53:13;;;;;;;18.90;4.90;;;5.90;99.90;;;;;;5036773;28;20489;-68
2023/03/14 05:55:39;;;;;;;8.85;4.47;;;6.00;99.90;;;;;;5035120;28;20032;-68
2023/03/14 05:58:05;;;;;;;7.97;4.60;;;6.00;99.90;;;;;;5034053;28;20026;-68
2023/03/14 06:00:31;;;;;;;9.82;4.88;;;6.00;99.90;;;;;;5036154;28;20044;-68
2023/03/14 06:02:56;;;;;;;14.20;6.40;;;6.10;99.90;;;;;;5036386;28;20025;-68
2023/03/14 06:05:22;;;;;;;13.70;5.47;;;6.10;99.90;;;;;;5035848;28;20033;-68
2023/03/14 06:07:48;;;;;;;14.88;5.72;;;6.20;99.90;;;;;;5035469;28;20052;-69
2023/03/14 06:10:13;;;;;;;12.90;6.32;;;6.30;99.90;;;;;;5035506;28;20040;-68
2023/03/14 06:12:39;;;;;;;13.48;6.97;;;6.30;99.90;;;;;;5035644;28;20099;-68
2023/03/14 06:15:05;;;;;;;12.48;6.00;;;6.40;99.90;;;;;;5035357;28;20030;-68
2023/03/14 06:17:31;;;;;;;10.75;4.95;;;6.50;99.90;;;;;;5034250;28;20041;-68
2023/03/14 06:19:56;;;;;;;11.88;6.40;;;6.50;99.90;;;;;;5035733;28;20470;-69
2023/03/14 06:22:22;;;;;;;15.32;6.05;;;6.60;99.90;;;;;;5035475;28;20032;-68
2023/03/14 06:24:48;;;;;;;14.45;6.60;;;6.60;99.90;;;;;;5034165;28;20022;-68
2023/03/14 06:27:13;;;;;;;18.10;6.95;;;6.70;99.90;;;;;;5035471;28;20080;-68
2023/03/14 06:29:39;;;;;;;13.00;5.90;;;6.70;99.90;;;;;;5035450;28;20033;-68
2023/03/14 06:32:05;;;;;;;14.48;6.18;;;6.80;99.90;;;;;;5034669;28;20516;-68
2023/03/14 06:34:31;;;;;;;13.63;6.50;;;6.90;99.90;;;;;;5034420;28;20553;-68
2023/03/14 06:36:56;;;;;;;13.32;6.60;;;7.00;99.90;;;;;;5033861;28;20026;-69
2023/03/14 06:39:22;;;;;;;12.85;6.05;;;7.20;99.90;;;;;;5035016;28;20075;-68
2023/03/14 06:41:48;;;;;;;15.32;5.97;;;7.30;99.90;;;;;;5034686;28;20030;-68
2023/03/14 06:44:13;;;;;;;15.20;6.00;;;7.30;99.90;;;;;;5033472;28;20029;-68
2023/03/14 06:46:39;;;;;;;13.35;6.10;;;7.50;99.90;;;;;;5034490;28;20049;-68
2023/03/14 06:49:04;;;;;;;15.25;5.85;;;7.50;99.90;;;;;;5034703;28;20034;-68
2023/03/14 06:51:30;;;;;;;17.67;6.28;;;7.70;99.90;;;;;;5034525;28;20427;-68
2023/03/14 06:53:56;;;;;;;12.38;6.28;;;8.10;99.90;;;;;;5035739;28;20033;-69
2023/03/14 06:56:21;;;;;;;22.90;6.43;;;8.60;99.90;;;;;;5035123;28;20021;-69
2023/03/14 06:58:47;;;;;;;16.60;6.50;;;9.00;99.90;;;;;;5034690;28;20031;-69
2023/03/14 07:01:23;;;;;;;15.93;5.97;;;9.40;99.90;;;;;;5034651;28;20111;-68
2023/03/14 07:03:49;;;;;;;17.27;5.80;;;9.60;99.90;;;;;;5033288;28;20033;-69
2023/03/14 07:06:14;;;;;;;22.23;5.95;;;9.70;99.90;;;;;;5034262;28;20498;-69
2023/03/14 07:08:41;;;;;;;11.90;3.45;;;9.90;99.90;;;;;;5034040;28;20029;-69
2023/03/14 07:11:07;;;;;;;7.18;2.65;;;10.20;99.90;;;;;;5033832;28;20420;-69
2023/03/14 07:13:33;;;;;;;4.22;1.25;;;10.30;99.90;;;;;;5034919;28;20409;-68
2023/03/14 07:15:59;;;;;;;5.63;1.15;;;10.80;99.90;;;;;;5033805;28;20079;-68
2023/03/14 07:18:24;;;;;;;1.33;0.90;;;11.20;99.90;;;;;;5034387;28;20025;-69
2023/03/14 07:20:50;;;;;;;1.10;0.77;;;11.60;99.90;;;;;;5034771;28;20052;-69
2023/03/14 07:23:16;;;;;;;0.90;0.43;;;11.80;99.90;;;;;;5035196;28;20084;-69
2023/03/14 07:25:41;;;;;;;1.02;0.50;;;12.10;99.90;;;;;;5034955;28;20021;-69
2023/03/14 07:28:08;;;;;;;0.10;0.10;;;12.20;99.90;;;;;;5035031;28;20107;-69
2023/03/14 07:30:34;;;;;;;2.78;0.43;;;12.30;99.90;;;;;;5033414;28;20046;-69
2023/03/14 07:32:59;;;;;;;0.98;0.30;;;12.50;99.90;;;;;;5034887;28;20049;-69
2023/03/14 07:35:25;;;;;;;0.40;0.20;;;12.50;99.90;;;;;;5034586;28;20045;-68
2023/03/14 07:37:50;;;;;;;1.08;0.28;;;12.50;99.90;;;;;;5035073;28;20029;-68
2023/03/14 07:40:16;;;;;;;1.25;0.30;;;12.50;99.90;;;;;;5035023;28;20519;-69
2023/03/14 07:42:43;;;;;;;0.70;0.20;;;12.60;99.90;;;;;;5034896;28;20458;-69
2023/03/14 07:45:10;;;;;;;1.15;0.20;;;12.70;99.90;;;;;;5034614;28;20033;-69
2023/03/14 07:47:35;;;;;;;2.65;0.10;;;12.70;99.90;;;;;;5034465;28;20021;-68
2023/03/14 07:50:02;;;;;;;2.28;0.20;;;12.60;99.90;;;;;;5032807;28;20496;-69
2023/03/14 07:52:28;;;;;;;1.25;0.13;;;12.60;99.90;;;;;;5034013;28;20446;-68
2023/03/14 07:54:53;;;;;;;1.08;0.08;;;12.60;99.90;;;;;;5034143;28;20083;-68
2023/03/14 07:57:19;;;;;;;0.20;0.20;;;12.60;99.90;;;;;;5033947;28;20365;-69
2023/03/14 07:59:44;;;;;;;0.00;0.00;;;12.60;99.90;;;;;;5034001;28;20473;-68
2023/03/14 08:02:11;;;;;;;4.78;0.10;;;12.60;99.90;;;;;;5033845;28;20041;-69
2023/03/14 08:04:38;;;;;;;0.43;0.43;;;12.60;99.90;;;;;;5032320;28;20030;-68
2023/03/14 08:07:04;;;;;;;0.30;0.08;;;12.60;99.90;;;;;;5033571;28;20048;-69
2023/03/14 08:09:30;;;;;;;2.67;0.10;;;12.60;99.90;;;;;;5032093;28;20128;-69
2023/03/14 08:11:55;;;;;;;0.38;0.00;;;12.60;99.90;;;;;;5033391;28;20033;-69
2023/03/14 08:14:23;;;;;;;0.63;0.00;;;12.60;99.90;;;;;;5032307;28;20038;-69
2023/03/14 08:16:50;;;;;;;0.10;0.00;;;12.60;99.90;;;;;;5032446;28;20465;-69
2023/03/14 08:19:15;;;;;;;0.10;0.10;;;12.60;99.90;;;;;;5033578;28;20053;-68
2023/03/14 08:21:41;;;;;;;2.45;0.20;;;12.60;99.90;;;;;;5033278;28;20053;-68
2023/03/14 08:24:07;;;;;;;4.97;0.20;;;12.60;99.90;;;;;;5037776;28;20033;-69
2023/03/14 08:26:33;;;;;;;2.47;0.20;;;12.60;99.90;;;;;;5037692;28;20446;-69
2023/03/14 08:28:59;;;;;;;1.35;0.10;;;12.60;99.90;;;;;;5035864;28;20120;-69
2023/03/14 08:31:24;;;;;;;0.20;0.00;;;12.60;99.90;;;;;;5036924;28;20489;-69
2023/03/14 08:33:51;;;;;;;0.32;0.00;;;12.60;99.90;;;;;;5037164;28;20428;-69
2023/03/14 08:36:18;;;;;;;26.60;2.20;;;12.60;99.90;;;;;;5035998;28;20524;-69
2023/03/14 08:38:44;;;;;;;0.40;0.00;;;12.60;99.90;;;;;;5036730;28;20381;-69
2023/03/14 08:41:10;;;;;;;0.10;0.03;;;12.60;99.90;;;;;;5036726;28;20032;-69
2023/03/14 08:43:36;;;;;;;0.00;0.00;;;12.70;99.90;;;;;;5036787;28;20029;-69
2023/03/14 08:46:02;;;;;;;0.75;0.00;;;12.70;99.90;;;;;;5036972;28;20052;-69
2023/03/14 08:48:29;;;;;;;2.67;0.10;;;12.70;99.90;;;;;;5035478;28;20025;-69
2023/03/14 08:50:56;;;;;;;1.67;0.10;;;12.70;99.90;;;;;;5035937;28;20022;-69
2023/03/14 08:53:22;;;;;;;2.33;0.03;;;12.70;99.90;;;;;;5036723;28;20026;-69
2023/03/14 08:55:53;;;;;;;3.00;0.10;;;12.80;99.90;;;;;;5036661;28;20063;-69
2023/03/14 08:58:19;;;;;;;1.85;0.10;;;12.80;99.90;;;;;;5036710;28;20365;-69
2023/03/14 09:00:45;;;;;;;0.55;0.20;;;12.80;99.90;;;;;;5035332;28;20025;-69
2023/03/14 09:03:10;;;;;;;0.40;0.10;;;12.90;99.90;;;;;;5036846;28;20465;-69
2023/03/14 09:05:36;;;;;;;1.65;0.30;;;12.90;99.90;;;;;;5035113;28;20504;-69
2023/03/14 09:08:02;;;;;;;1.98;0.20;;;12.90;99.90;;;;;;5036427;28;20105;-69
2023/03/14 09:10:27;;;;;;;3.80;0.30;;;12.90;99.90;;;;;;5035111;28;20132;-69
2023/03/14 09:12:53;;;;;;;0.10;0.10;;;12.90;99.90;;;;;;5036605;28;20026;-69
2023/03/14 09:15:19;;;;;;;0.30;0.10;;;12.90;99.90;;;;;;5036131;28;20026;-69
2023/03/14 09:17:45;;;;;;;1.02;0.20;;;12.90;99.90;;;;;;5036345;28;20032;-69
2023/03/14 09:20:10;;;;;;;1.17;0.00;;;12.90;99.90;;;;;;5035396;28;20079;-69
2023/03/14 09:22:36;;;;;;;5.35;0.22;;;13.00;99.90;;;;;;5036554;28;20037;-69
2023/03/14 09:25:03;;;;;;;0.55;0.10;;;12.90;99.90;;;;;;5036105;28;20105;-69
2023/03/14 09:27:29;;;;;;;5.75;0.20;;;13.00;99.90;;;;;;5034674;28;20029;-69
2023/03/14 09:29:55;;;;;;;3.95;0.30;;;13.00;99.90;;;;;;5034706;28;20040;-69
2023/03/14 09:32:20;;;;;;;1.58;0.10;;;13.00;99.90;;;;;;5037197;28;20128;-69
2023/03/14 09:34:46;;;;;;;1.83;0.30;;;13.00;99.90;;;;;;5036851;28;20033;-69
2023/03/14 09:37:12;;;;;;;3.80;0.30;;;13.00;99.90;;;;;;5036688;28;20454;-69
2023/03/14 09:39:37;;;;;;;2.35;0.32;;;13.00;99.90;;;;;;5035399;28;20045;-70
2023/03/14 09:42:07;;;;;;;3.75;0.28;;;13.00;99.90;;;;;;5035617;28;20489;-69
2023/03/14 09:44:39;;;;;;;5.28;0.43;;;13.00;99.90;;;;;;5034361;28;20071;-69
2023/03/14 09:47:12;;;;;;;8.27;0.50;;;13.00;99.90;;;;;;5034524;28;20429;-69
2023/03/14 09:49:40;;;;;;;21.73;2.20;;;13.00;99.90;;;;;;5034077;28;20036;-69
2023/03/14 09:52:20;;;;;;;9.50;1.50;;;13.00;99.90;;;;;;5035642;28;20021;-69
2023/03/14 09:54:50;;;;;;;4.50;0.90;;;13.00;99.90;;;;;;5035602;28;20036;-70
2023/03/14 09:57:19;;;;;;;1.80;0.25;;;13.10;99.90;;;;;;5036064;28;20472;-69
2023/03/14 09:59:47;;;;;;;4.22;0.55;;;13.20;99.90;;;;;;5035533;28;20029;-69
2023/03/14 10:02:19;;;;;;;2.22;0.60;;;13.20;99.90;;;;;;5034444;28;20092;-69
2023/03/14 10:04:46;;;;;;;6.57;0.55;;;13.30;99.90;;;;;;5035779;28;20025;-69
2023/03/14 10:07:16;;;;;;;1.67;0.30;;;13.30;99.90;;;;;;5035459;28;20022;-69
2023/03/14 10:09:44;;;;;;;2.22;0.35;;;13.30;99.90;;;;;;5033949;28;20060;-69
2023/03/14 10:12:10;;;;;;;0.10;0.10;;;13.30;99.90;;;;;;5035456;28;20528;-69
2023/03/14 10:14:44;;;;;;;1.08;0.10;;;13.40;99.90;;;;;;5034082;28;20032;-69
2023/03/14 10:17:12;;;;;;;1.65;0.10;;;13.40;99.90;;;;;;5034325;28;20037;-69
2023/03/14 10:19:59;;;;;;;5.25;0.40;;;13.50;99.90;;;;;;5033999;28;20029;-69
2023/03/14 10:22:30;;;;;;;1.13;0.10;;;13.40;99.90;;;;;;5035495;28;20025;-69
2023/03/14 10:25:05;;;;;;;1.00;0.13;;;13.40;99.90;;;;;;5035854;28;20029;-69
2023/03/14 10:27:35;;;;;;;1.23;0.20;;;13.30;99.90;;;;;;5036294;28;20022;-69
2023/03/14 10:30:04;;;;;;;0.10;0.10;;;13.10;99.90;;;;;;5035151;28;20470;-69
2023/03/14 10:32:36;;;;;;;5.32;0.40;;;12.90;99.90;;;;;;5036191;28;20128;-69
2023/03/14 10:35:19;;;;;;;0.40;0.30;;;12.80;99.90;;;;;;5034401;28;20355;-69
2023/03/14 10:37:54;;;;;;;0.77;0.13;;;12.60;99.90;;;;;;5033983;28;20025;-69
2023/03/14 10:40:24;;;;;;;1.02;0.30;;;12.50;99.90;;;;;;5036576;28;20026;-69
2023/03/14 10:42:51;;;;;;;0.95;0.10;;;12.50;99.90;;;;;;5035837;28;20025;-69
2023/03/14 10:45:45;;;;;;;0.63;0.35;;;12.40;99.90;;;;;;5034931;28;20100;-69
2023/03/14 10:48:30;;;;;;;3.72;0.10;;;12.30;99.90;;;;;;5035042;28;20021;-69
2023/03/14 10:50:57;;;;;;;0.68;0.10;;;12.30;99.90;;;;;;5033915;28;20036;-69
2023/03/14 10:53:24;;;;;;;0.50;0.17;;;12.20;99.90;;;;;;5034327;28;20029;-69
2023/03/14 10:55:50;;;;;;;1.00;0.30;;;12.20;99.90;;;;;;5033614;28;20031;-69
2023/03/14 10:58:25;;;;;;;4.10;0.25;;;12.20;99.90;;;;;;5035179;28;20097;-69
2023/03/14 11:01:06;;;;;;;0.68;0.15;;;12.10;99.90;;;;;;5035286;28;20513;-69
2023/03/14 11:03:33;;;;;;;2.15;0.30;;;12.10;99.90;;;;;;5033627;28;20052;-69
2023/03/14 11:06:20;;;;;;;1.77;0.25;;;12.00;99.90;;;;;;5035061;28;20112;-69
2023/03/14 11:09:02;;;;;;;1.20;0.08;;;12.00;99.90;;;;;;5034961;28;20069;-70
2023/03/14 11:11:30;;;;;;;0.00;0.00;;;12.00;99.90;;;;;;5033873;28;20465;-69
2023/03/14 11:14:11;;;;;;;1.08;0.30;;;11.90;99.90;;;;;;5034247;28;20477;-69
2023/03/14 11:17:12;;;;;;;1.73;0.08;;;11.90;99.90;;;;;;5034386;28;20551;-69
2023/03/14 11:19:57;;;;;;;0.25;0.10;;;11.90;99.90;;;;;;5035135;28;20034;-69
2023/03/14 11:22:22;;;;;;;3.20;0.60;;;11.90;99.90;;;;;;5034246;28;20049;-69
2023/03/14 11:25:18;;;;;;;0.68;0.10;;;11.80;99.90;;;;;;5033484;28;20084;-69
2023/03/14 11:27:46;;;;;;;2.17;0.00;;;11.80;99.90;;;;;;5034787;28;20491;-69
2023/03/14 11:30:34;;;;;;;1.55;0.13;;;11.70;99.90;;;;;;5034120;28;20045;-69
2023/03/14 11:33:11;;;;;;;0.77;0.10;;;11.70;99.90;;;;;;5032386;28;20052;-69
2023/03/14 11:35:58;;;;;;;0.75;0.10;;;11.60;99.90;;;;;;5032773;28;20112;-69
2023/03/14 11:38:47;;;;;;;0.20;0.00;;;11.60;99.90;;;;;;5034351;28;20031;-69
2023/03/14 11:41:25;;;;;;;;;;;11.50;99.90;;;;;;5024319;28;20037;-69
2023/03/14 11:43:59;;;;;;;0.20;0.10;;;11.40;99.90;;;;;;5034447;28;19912;-69
2023/03/14 11:46:27;;;;;;;1.52;0.47;;;11.40;99.90;;;;;;5033984;28;20028;-69
2023/03/14 11:48:56;;;;;;;0.30;0.10;;;11.30;99.90;;;;;;5032574;28;20045;-69
2023/03/14 11:51:25;;;;;;;1.30;0.10;;;11.30;99.90;;;;;;5033723;28;20139;-69
2023/03/14 11:54:03;;;;;;;0.10;0.10;;;11.20;99.90;;;;;;5033573;28;20397;-69
2023/03/14 11:56:36;;;;;;;0.95;0.20;;;11.10;99.90;;;;;;5034060;28;20097;-69
2023/03/14 11:59:09;;;;;;;2.65;0.38;;;11.10;99.90;;;;;;5038337;28;20025;-69
2023/03/14 12:01:49;;;;;;;1.20;0.10;;;11.00;99.90;;;;;;5038345;28;20030;-69
2023/03/14 12:04:46;;;;;;;0.10;0.00;;;10.90;99.90;;;;;;5037772;28;20454;-69
2023/03/14 12:07:46;;;;;;;2.13;0.03;;;10.90;99.90;;;;;;5036416;28;20033;-69
2023/03/14 12:10:12;;;;;;;0.90;0.00;;;10.80;99.90;;;;;;4998803;28;20489;-69
2023/03/14 12:12:38;;;;;;;1.08;0.10;;;10.80;99.90;;;;;;5037885;28;20030;-69
2023/03/14 12:15:04;;;;;;;1.92;0.00;;;10.80;99.90;;;;;;5037774;28;20029;-69
2023/03/14 12:17:39;;;;;;;3.05;0.30;;;10.80;99.90;;;;;;5037519;28;20103;-69
2023/03/14 12:20:14;;;;;;;0.10;0.08;;;10.80;99.90;;;;;;5037475;28;20026;-69
2023/03/14 12:23:01;;;;;;;1.42;0.10;;;10.80;99.90;;;;;;5036224;28;20026;-69
2023/03/14 12:25:30;;;;;;;1.38;0.10;;;10.80;99.90;;;;;;5037305;28;20545;-69
2023/03/14 12:27:56;;;;;;;0.95;0.00;;;10.80;99.90;;;;;;5037427;28;20025;-69
2023/03/14 12:30:29;;;;;;;0.15;0.00;;;10.70;99.90;;;;;;5037254;28;20164;-69
2023/03/14 12:33:10;;;;;;;3.45;0.17;;;10.70;99.90;;;;;;5035729;28;20052;-69
2023/03/14 12:35:41;;;;;;;1.10;0.20;;;10.70;99.90;;;;;;5037226;28;20032;-69
2023/03/14 12:38:31;;;;;;;0.55;0.10;;;10.70;99.90;;;;;;5037136;28;20021;-69
2023/03/14 12:41:05;;;;;;;5.05;0.10;;;10.70;99.90;;;;;;5037421;28;20033;-69
2023/03/14 12:43:33;;;;;;;1.85;0.40;;;10.70;99.90;;;;;;5037136;28;20538;-69
2023/03/14 12:46:24;;;;;;;3.78;0.38;;;10.70;99.90;;;;;;5035777;28;20030;-69
2023/03/14 12:49:05;;;;;;;3.50;0.30;;;10.80;99.90;;;;;;5023448;28;20370;-69
2023/03/14 12:51:40;;;;;;;4.22;0.30;;;10.80;99.90;;;;;;5035806;28;20385;-69
2023/03/14 12:54:24;;;;;;;4.70;0.57;;;10.80;99.90;;;;;;5035808;28;20427;-69
2023/03/14 12:57:09;;;;;;;1.05;0.30;;;10.80;99.90;;;;;;5035521;28;20025;-70
2023/03/14 13:00:04;;;;;;;3.50;0.52;;;10.80;99.90;;;;;;5035639;28;20030;-69